Time;durP1;ratioP1;P1;durP2;ratioP2;P2;SDS_P1;SDS_P2;PMS_P1;PMS_P2;Temp;Humidity;BMP_temperature;BMP_pressure;BME280_temperature;BME280_humidity;BME280_pressure;Samples;Min_cycle;Max_cycle;Signal;HPM_P1;HPM_P2
2021/08/04 00:00:25;;;;;;;3.03;2.80;;;14.30;99.90;;;;;;5119599;28;20175;-44
2021/08/04 00:02:51;;;;;;;2.80;2.43;;;14.40;99.90;;;;;;5118949;28;20432;-44
2021/08/04 00:05:17;;;;;;;4.10;2.73;;;14.40;99.90;;;;;;5119436;28;20421;-44
2021/08/04 00:07:43;;;;;;;4.70;2.47;;;14.40;99.90;;;;;;5119046;28;20695;-44
2021/08/04 00:10:12;;;;;;;3.77;2.70;;;14.40;99.90;;;;;;5118729;28;20191;-44
2021/08/04 00:12:37;;;;;;;3.73;3.43;;;14.40;99.90;;;;;;5119736;28;20183;-44
2021/08/04 00:15:04;;;;;;;3.60;2.83;;;14.40;99.90;;;;;;5119086;28;20866;-44
2021/08/04 00:17:30;;;;;;;3.83;3.13;;;14.40;99.90;;;;;;5119468;28;20570;-43
2021/08/04 00:19:55;;;;;;;3.20;2.90;;;14.40;99.90;;;;;;5118812;28;20498;-44
2021/08/04 00:22:21;;;;;;;3.73;3.23;;;14.40;99.90;;;;;;5118467;28;20406;-44
2021/08/04 00:24:47;;;;;;;3.97;2.83;;;14.40;99.90;;;;;;5118444;28;20235;-44
2021/08/04 00:27:12;;;;;;;4.27;3.03;;;14.40;99.90;;;;;;5119009;28;20179;-44
2021/08/04 00:29:38;;;;;;;4.67;3.43;;;14.40;99.90;;;;;;5119014;28;20207;-44
2021/08/04 00:32:04;;;;;;;4.07;2.90;;;14.50;99.90;;;;;;5118597;28;20168;-44
2021/08/04 00:34:30;;;;;;;3.40;3.10;;;14.40;99.90;;;;;;5118749;28;20191;-44
2021/08/04 00:36:56;;;;;;;3.63;2.70;;;14.40;99.90;;;;;;5118991;28;20413;-44
2021/08/04 00:39:21;;;;;;;3.00;2.70;;;14.40;99.90;;;;;;5114172;28;20273;-44
2021/08/04 00:41:47;;;;;;;4.40;3.30;;;14.30;99.90;;;;;;5097934;28;20207;-44
2021/08/04 00:44:13;;;;;;;4.87;2.70;;;14.30;99.90;;;;;;5118121;28;20196;-44
2021/08/04 00:46:43;;;;;;;3.83;3.07;;;14.30;99.90;;;;;;5118011;28;20437;-45
2021/08/04 00:49:13;;;;;;;3.70;2.90;;;14.30;99.90;;;;;;5118338;28;20515;-44
2021/08/04 00:51:40;;;;;;;2.77;2.57;;;14.30;99.90;;;;;;5118704;28;20417;-44
2021/08/04 00:54:07;;;;;;;4.43;4.03;;;14.40;99.90;;;;;;5118278;28;20418;-44
2021/08/04 00:56:33;;;;;;;3.27;2.77;;;14.40;99.90;;;;;;5118551;28;20406;-44
2021/08/04 00:59:00;;;;;;;2.40;2.17;;;14.40;99.90;;;;;;5118007;28;20484;-44
2021/08/04 01:01:36;;;;;;;3.67;3.13;;;14.30;99.90;;;;;;5100408;28;20734;-44
2021/08/04 01:04:09;;;;;;;3.73;2.43;;;14.30;99.90;;;;;;5117839;28;20401;-44
2021/08/04 01:06:46;;;;;;;3.17;2.87;;;14.30;99.90;;;;;;5117496;28;20398;-44
2021/08/04 01:09:12;;;;;;;3.73;3.03;;;14.40;99.90;;;;;;5117069;28;20416;-44
2021/08/04 01:11:40;;;;;;;3.50;3.03;;;14.40;99.90;;;;;;5100020;28;20413;-44
2021/08/04 01:14:11;;;;;;;3.30;2.83;;;14.40;99.90;;;;;;5099387;28;20729;-44
2021/08/04 01:16:41;;;;;;;4.40;2.70;;;14.40;99.90;;;;;;5099658;28;20819;-44
2021/08/04 01:19:15;;;;;;;5.87;2.90;;;14.40;99.90;;;;;;5099651;28;20531;-44
2021/08/04 01:22:01;;;;;;;5.67;2.67;;;14.40;99.90;;;;;;5117829;28;20412;-44
2021/08/04 01:24:45;;;;;;;3.47;3.10;;;14.40;99.90;;;;;;5100075;28;20476;-44
2021/08/04 01:27:13;;;;;;;4.80;2.53;;;14.30;99.90;;;;;;5100533;28;20421;-44
2021/08/04 01:29:39;;;;;;;4.30;3.23;;;14.20;99.90;;;;;;5100156;28;20780;-44
2021/08/04 01:32:06;;;;;;;4.83;2.93;;;14.20;99.90;;;;;;5118096;28;20445;-44
2021/08/04 01:34:35;;;;;;;4.00;2.83;;;14.10;99.90;;;;;;5099694;28;20700;-44
2021/08/04 01:37:02;;;;;;;3.00;2.70;;;14.10;99.90;;;;;;5117631;28;20745;-44
2021/08/04 01:39:31;;;;;;;3.30;3.00;;;14.10;99.90;;;;;;5099685;28;20529;-44
2021/08/04 01:41:57;;;;;;;4.43;3.20;;;14.00;99.90;;;;;;5099976;28;20425;-44
2021/08/04 01:44:23;;;;;;;3.80;2.80;;;14.00;99.90;;;;;;5117738;28;20429;-44
2021/08/04 01:46:50;;;;;;;3.80;3.10;;;14.00;99.90;;;;;;5099661;28;20417;-44
2021/08/04 01:49:16;;;;;;;2.93;2.63;;;14.00;99.90;;;;;;5116787;28;20483;-44
2021/08/04 01:51:45;;;;;;;3.13;2.80;;;14.00;99.90;;;;;;5099922;28;20413;-43
2021/08/04 01:54:11;;;;;;;3.40;2.90;;;14.00;99.90;;;;;;5099157;28;20471;-44
2021/08/04 01:56:38;;;;;;;3.07;2.77;;;14.00;99.90;;;;;;5117207;28;20827;-44
2021/08/04 01:59:05;;;;;;;3.40;3.10;;;14.00;99.90;;;;;;5116896;28;20472;-44
2021/08/04 02:01:30;;;;;;;5.77;3.23;;;13.90;99.90;;;;;;5099200;28;20437;-44
2021/08/04 02:03:56;;;;;;;6.40;2.67;;;13.90;99.90;;;;;;5117249;28;20695;-44
2021/08/04 02:06:29;;;;;;;5.00;2.90;;;13.90;99.90;;;;;;5117893;28;20474;-44
2021/08/04 02:09:01;;;;;;;3.63;2.90;;;14.00;99.90;;;;;;5116991;28;20167;-44
2021/08/04 02:12:03;;;;;;;7.30;3.33;;;13.90;99.90;;;;;;5117740;28;20810;-43
2021/08/04 02:14:55;;;;;;;3.80;3.00;;;13.90;99.90;;;;;;5015495;28;20449;-43
2021/08/04 02:17:39;;;;;;;2.67;2.47;;;13.90;99.90;;;;;;5108255;28;20418;-44
2021/08/04 02:20:12;;;;;;;7.07;2.97;;;13.90;99.90;;;;;;5117687;28;20421;-44
2021/08/04 02:22:47;;;;;;;3.07;2.67;;;13.90;99.90;;;;;;5117229;28;20417;-44
2021/08/04 02:25:21;;;;;;;3.37;2.80;;;13.90;99.90;;;;;;5118149;28;20428;-44
2021/08/04 02:27:47;;;;;;;3.63;3.33;;;13.90;99.90;;;;;;5103379;28;20524;-44
2021/08/04 02:30:16;;;;;;;5.20;3.07;;;13.90;99.90;;;;;;5103330;28;20778;-44
2021/08/04 02:32:41;;;;;;;3.13;2.83;;;13.90;99.90;;;;;;5086444;28;20449;-44
2021/08/04 02:35:08;;;;;;;4.67;2.37;;;13.90;99.90;;;;;;5102791;28;20894;-44
2021/08/04 02:37:34;;;;;;;3.30;2.63;;;14.00;99.90;;;;;;5103147;28;20778;-44
2021/08/04 02:40:00;;;;;;;3.93;2.67;;;14.00;99.90;;;;;;5120764;28;20451;-44
2021/08/04 02:42:26;;;;;;;3.97;3.07;;;14.00;99.90;;;;;;5103317;28;20409;-44
2021/08/04 02:44:52;;;;;;;4.43;2.80;;;14.10;99.90;;;;;;5120915;28;20846;-44
2021/08/04 02:47:19;;;;;;;3.30;3.00;;;14.10;99.90;;;;;;5120796;28;20462;-44
2021/08/04 02:49:46;;;;;;;4.40;3.03;;;14.10;99.90;;;;;;5120594;28;20430;-41
2021/08/04 02:52:13;;;;;;;3.63;2.93;;;14.00;99.90;;;;;;5102742;28;20416;-44
2021/08/04 02:54:43;;;;;;;3.73;3.33;;;14.00;99.90;;;;;;5103592;28;20506;-44
2021/08/04 02:57:08;;;;;;;3.23;2.93;;;14.00;99.90;;;;;;5120321;28;20410;-44
2021/08/04 02:59:34;;;;;;;2.80;2.50;;;14.10;99.90;;;;;;5120268;28;20426;-42
2021/08/04 03:02:00;;;;;;;2.67;2.37;;;14.10;99.90;;;;;;5102137;28;20168;-44
2021/08/04 03:04:26;;;;;;;2.67;2.10;;;14.00;99.90;;;;;;5085794;28;20775;-44
2021/08/04 03:06:51;;;;;;;3.10;2.37;;;14.10;99.90;;;;;;5120332;28;20415;-44
2021/08/04 03:09:17;;;;;;;5.40;2.93;;;14.10;99.90;;;;;;5119797;28;20561;-44
2021/08/04 03:11:43;;;;;;;3.13;2.40;;;14.00;99.90;;;;;;5120384;28;20557;-43
2021/08/04 03:14:08;;;;;;;2.77;2.57;;;14.00;99.90;;;;;;5119705;28;20441;-45
2021/08/04 03:16:34;;;;;;;2.40;2.10;;;14.00;99.90;;;;;;5120066;28;20240;-45
2021/08/04 03:19:00;;;;;;;3.13;2.83;;;14.00;99.90;;;;;;5118533;28;20207;-45
2021/08/04 03:21:26;;;;;;;3.53;3.23;;;14.00;99.90;;;;;;5112898;28;20186;-45
2021/08/04 03:23:52;;;;;;;4.07;3.03;;;14.00;99.90;;;;;;5119869;28;20475;-45
2021/08/04 03:26:17;;;;;;;3.30;2.90;;;13.90;99.90;;;;;;5120248;28;20176;-45
2021/08/04 03:28:43;;;;;;;3.30;2.87;;;13.90;99.90;;;;;;5119949;28;20429;-45
2021/08/04 03:31:09;;;;;;;3.20;2.90;;;13.90;99.90;;;;;;5120151;28;20187;-45
2021/08/04 03:33:34;;;;;;;3.20;2.90;;;13.80;99.90;;;;;;5120454;28;20441;-45
2021/08/04 03:36:00;;;;;;;4.50;2.70;;;13.80;99.90;;;;;;5118852;28;20179;-45
2021/08/04 03:38:26;;;;;;;5.03;3.40;;;13.80;99.90;;;;;;5117191;28;20200;-45
2021/08/04 03:40:52;;;;;;;4.03;3.33;;;13.90;99.90;;;;;;5118040;28;20178;-45
2021/08/04 03:43:18;;;;;;;3.23;2.93;;;13.80;99.90;;;;;;5118942;28;20402;-45
2021/08/04 03:45:43;;;;;;;3.80;3.43;;;13.80;99.90;;;;;;5118069;28;20171;-45
2021/08/04 03:48:09;;;;;;;3.90;3.60;;;13.90;99.90;;;;;;5117943;28;20172;-45
2021/08/04 03:50:35;;;;;;;3.57;3.27;;;13.80;99.90;;;;;;5118940;28;20192;-45
2021/08/04 03:53:00;;;;;;;7.23;3.73;;;13.80;99.90;;;;;;5119472;28;20409;-45
2021/08/04 03:55:26;;;;;;;3.50;2.73;;;13.80;99.90;;;;;;5119282;28;20190;-45
2021/08/04 03:57:52;;;;;;;3.67;2.83;;;13.80;99.90;;;;;;5119341;28;20626;-45
2021/08/04 04:00:18;;;;;;;6.07;2.77;;;13.80;99.90;;;;;;5119519;28;20207;-45
2021/08/04 04:02:44;;;;;;;3.10;2.77;;;13.70;99.90;;;;;;5119621;28;20410;-46
2021/08/04 04:05:09;;;;;;;3.30;2.90;;;13.70;99.90;;;;;;5119207;28;20875;-46
2021/08/04 04:07:35;;;;;;;4.23;3.60;;;13.70;99.90;;;;;;5119316;28;20164;-46
2021/08/04 04:10:02;;;;;;;4.03;3.00;;;13.70;99.90;;;;;;5119031;28;20507;-46
2021/08/04 04:12:29;;;;;;;4.60;3.20;;;13.70;99.90;;;;;;5119005;28;20424;-46
2021/08/04 04:14:55;;;;;;;3.20;2.90;;;13.70;99.90;;;;;;5118606;28;20512;-46
2021/08/04 04:17:21;;;;;;;3.63;3.33;;;13.70;99.90;;;;;;5119123;28;20413;-46
2021/08/04 04:19:47;;;;;;;2.70;2.50;;;13.70;99.90;;;;;;5118712;28;20426;-46
2021/08/04 04:22:13;;;;;;;3.70;3.30;;;13.70;99.90;;;;;;5118375;28;20417;-46
2021/08/04 04:24:38;;;;;;;3.53;3.13;;;13.70;99.90;;;;;;5117742;28;20251;-46
2021/08/04 04:27:05;;;;;;;4.17;3.60;;;13.70;99.90;;;;;;5118332;28;20179;-46
2021/08/04 04:29:30;;;;;;;3.50;3.00;;;13.80;99.90;;;;;;5118299;28;20176;-46
2021/08/04 04:31:56;;;;;;;4.10;3.00;;;13.80;99.90;;;;;;5119093;28;20429;-46
2021/08/04 04:34:22;;;;;;;3.23;2.87;;;13.80;99.90;;;;;;5118601;28;20210;-46
2021/08/04 04:36:48;;;;;;;3.57;2.90;;;13.80;99.90;;;;;;5118534;28;20167;-46
2021/08/04 04:39:13;;;;;;;5.57;3.10;;;13.80;99.90;;;;;;5118188;28;20207;-46
2021/08/04 04:41:39;;;;;;;5.40;3.20;;;13.90;99.90;;;;;;5118814;28;20437;-46
2021/08/04 04:44:05;;;;;;;3.23;2.93;;;13.90;99.90;;;;;;5118018;28;20168;-46
2021/08/04 04:46:31;;;;;;;4.63;3.23;;;13.90;99.90;;;;;;5118402;28;20168;-46
2021/08/04 04:48:57;;;;;;;3.67;3.23;;;14.00;99.90;;;;;;5117552;28;20834;-47
2021/08/04 04:51:22;;;;;;;3.57;3.03;;;14.00;99.90;;;;;;5118040;28;20437;-46
2021/08/04 04:53:48;;;;;;;3.10;2.73;;;14.00;99.90;;;;;;5117431;28;20274;-46
2021/08/04 04:56:14;;;;;;;6.70;3.30;;;14.10;99.90;;;;;;5117620;28;20194;-46
2021/08/04 04:58:39;;;;;;;5.93;3.67;;;14.10;99.90;;;;;;5117639;28;20207;-46
2021/08/04 05:01:05;;;;;;;3.83;3.03;;;14.20;99.90;;;;;;5117999;28;20291;-46
2021/08/04 05:03:31;;;;;;;3.17;2.87;;;14.30;99.90;;;;;;5117624;28;20251;-46
2021/08/04 05:05:57;;;;;;;4.20;3.20;;;14.20;99.90;;;;;;5117497;28;20179;-46
2021/08/04 05:08:22;;;;;;;5.03;3.03;;;14.30;99.90;;;;;;5117988;28;20442;-46
2021/08/04 05:10:48;;;;;;;3.40;3.10;;;14.30;99.90;;;;;;5099652;28;20176;-46
2021/08/04 05:13:13;;;;;;;4.00;2.60;;;14.30;99.90;;;;;;5117668;28;20171;-46
2021/08/04 05:15:39;;;;;;;4.10;3.10;;;14.30;99.90;;;;;;5116371;28;20176;-46
2021/08/04 05:18:05;;;;;;;5.23;3.10;;;14.30;99.90;;;;;;5117687;28;20233;-46
2021/08/04 05:20:31;;;;;;;3.70;3.33;;;14.30;99.90;;;;;;5117545;28;20168;-46
2021/08/04 05:22:57;;;;;;;4.50;3.20;;;14.30;99.90;;;;;;5117875;28;20233;-46
2021/08/04 05:25:24;;;;;;;4.27;3.40;;;14.50;99.90;;;;;;5117562;28;20429;-46
2021/08/04 05:27:49;;;;;;;5.60;3.10;;;14.50;99.90;;;;;;5116991;28;20417;-46
2021/08/04 05:30:15;;;;;;;3.53;2.87;;;14.60;99.90;;;;;;5117434;28;20488;-46
2021/08/04 05:32:41;;;;;;;4.83;3.10;;;14.70;99.90;;;;;;5099124;28;20351;-46
2021/08/04 05:35:07;;;;;;;2.93;2.73;;;14.80;99.90;;;;;;5117238;28;20853;-46
2021/08/04 05:37:33;;;;;;;4.17;3.13;;;14.90;99.90;;;;;;5117059;28;20453;-46
2021/08/04 05:39:59;;;;;;;3.37;2.90;;;15.10;99.90;;;;;;5116961;28;20835;-46
2021/08/04 05:42:25;;;;;;;2.77;2.57;;;15.10;99.90;;;;;;5115541;28;20745;-46
2021/08/04 05:44:50;;;;;;;2.87;2.57;;;15.20;99.90;;;;;;5117322;28;20460;-46
2021/08/04 05:47:16;;;;;;;4.60;2.90;;;15.40;99.90;;;;;;5116944;28;20160;-46
2021/08/04 05:49:42;;;;;;;4.67;3.13;;;15.50;99.90;;;;;;5116808;28;20526;-46
2021/08/04 05:52:08;;;;;;;4.00;2.40;;;15.50;99.90;;;;;;5116209;28;20496;-46
2021/08/04 05:54:34;;;;;;;3.60;3.30;;;15.60;99.90;;;;;;5115591;28;20463;-46
2021/08/04 05:57:00;;;;;;;5.03;3.57;;;15.70;99.70;;;;;;5115155;28;20199;-46
2021/08/04 05:59:25;;;;;;;3.30;2.80;;;15.70;99.90;;;;;;5115326;28;20587;-46
2021/08/04 06:01:51;;;;;;;3.50;3.20;;;15.80;99.60;;;;;;5118755;28;20268;-46
2021/08/04 06:04:17;;;;;;;3.23;2.93;;;15.80;99.20;;;;;;5119072;28;20258;-46
2021/08/04 06:06:42;;;;;;;3.83;3.43;;;16.00;99.40;;;;;;5120981;28;20180;-46
2021/08/04 06:09:08;;;;;;;3.43;2.83;;;15.90;99.20;;;;;;5120044;28;20705;-46
2021/08/04 06:11:34;;;;;;;4.30;3.00;;;16.20;99.30;;;;;;5120673;28;20175;-46
2021/08/04 06:14:00;;;;;;;3.27;2.70;;;16.30;98.90;;;;;;5120318;28;20271;-46
2021/08/04 06:16:25;;;;;;;3.93;3.10;;;16.40;98.20;;;;;;5119278;28;20191;-46
2021/08/04 06:18:51;;;;;;;3.47;3.00;;;16.30;98.40;;;;;;5118880;28;20530;-46
2021/08/04 06:21:16;;;;;;;3.33;2.70;;;16.20;98.40;;;;;;5117074;28;20241;-46
2021/08/04 06:23:47;;;;;;;3.43;2.73;;;16.40;98.50;;;;;;5098571;28;20271;-46
2021/08/04 06:26:13;;;;;;;3.50;3.03;;;16.60;98.40;;;;;;5099513;28;20559;-46
2021/08/04 06:28:39;;;;;;;4.30;3.40;;;16.70;98.10;;;;;;5099535;28;20488;-46
2021/08/04 06:31:05;;;;;;;2.97;2.60;;;16.90;97.40;;;;;;5098562;28;20499;-46
2021/08/04 06:33:30;;;;;;;2.67;2.47;;;16.90;96.70;;;;;;5099439;28;20249;-47
2021/08/04 06:35:56;;;;;;;3.23;2.90;;;17.00;96.50;;;;;;5099456;28;20533;-44
2021/08/04 06:38:21;;;;;;;2.70;2.30;;;17.20;96.30;;;;;;5098828;28;20318;-45
2021/08/04 06:40:47;;;;;;;4.80;2.87;;;17.30;95.80;;;;;;5099896;28;20184;-45
2021/08/04 06:43:13;;;;;;;3.47;2.43;;;17.30;95.30;;;;;;5100093;28;20554;-45
2021/08/04 06:45:39;;;;;;;4.20;2.80;;;17.30;95.30;;;;;;5099466;28;20481;-45
2021/08/04 06:48:09;;;;;;;2.30;1.93;;;17.40;94.60;;;;;;5099795;28;20187;-45
2021/08/04 06:50:35;;;;;;;3.17;2.50;;;17.40;94.90;;;;;;5099763;28;20188;-45
2021/08/04 06:53:00;;;;;;;3.57;2.33;;;17.50;94.50;;;;;;5098888;28;20428;-45
2021/08/04 06:55:26;;;;;;;3.00;2.70;;;17.60;95.00;;;;;;5098458;28;20188;-46
2021/08/04 06:57:52;;;;;;;2.63;2.43;;;18.00;93.50;;;;;;5097259;28;20593;-45
2021/08/04 07:00:17;;;;;;;2.60;2.33;;;18.20;93.40;;;;;;5098391;28;20501;-45
2021/08/04 07:02:43;;;;;;;2.37;2.17;;;18.40;92.80;;;;;;5097511;28;20507;-45
2021/08/04 07:05:09;;;;;;;3.10;2.80;;;18.60;92.70;;;;;;5097439;28;20299;-45
2021/08/04 07:07:35;;;;;;;2.93;2.63;;;18.90;92.10;;;;;;5097652;28;20172;-45
2021/08/04 07:10:00;;;;;;;3.07;2.53;;;19.10;91.80;;;;;;5099362;28;20441;-45
2021/08/04 07:12:26;;;;;;;2.53;2.30;;;19.30;91.20;;;;;;5099242;28;20178;-45
2021/08/04 07:14:52;;;;;;;3.10;2.50;;;19.60;91.20;;;;;;5098984;28;20216;-45
2021/08/04 07:17:18;;;;;;;5.90;2.20;;;19.80;90.80;;;;;;5098455;28;20180;-45
2021/08/04 07:19:44;;;;;;;3.17;2.40;;;20.20;91.00;;;;;;5098839;28;20441;-46
2021/08/04 07:22:09;;;;;;;2.50;2.20;;;20.60;90.30;;;;;;5099408;28;20177;-46
2021/08/04 07:24:35;;;;;;;2.77;2.30;;;21.00;90.20;;;;;;5114112;28;20473;-46
2021/08/04 07:27:01;;;;;;;5.57;2.60;;;21.10;88.30;;;;;;5118963;28;20184;-46
2021/08/04 07:29:26;;;;;;;2.97;2.67;;;21.10;86.50;;;;;;5118812;28;20180;-45
2021/08/04 07:31:52;;;;;;;3.60;2.20;;;21.10;86.10;;;;;;5118464;28;20541;-45
2021/08/04 07:34:22;;;;;;;2.97;2.67;;;21.00;85.50;;;;;;5117550;28;20183;-46
2021/08/04 07:36:49;;;;;;;2.67;2.37;;;20.90;84.40;;;;;;5117862;28;20409;-46
2021/08/04 07:39:15;;;;;;;2.93;2.50;;;20.90;85.00;;;;;;5101084;28;20477;-46
2021/08/04 07:41:41;;;;;;;3.60;2.50;;;20.80;84.30;;;;;;5118804;28;20424;-45
2021/08/04 07:44:07;;;;;;;2.90;2.30;;;20.30;84.50;;;;;;5118642;28;20413;-46
2021/08/04 07:46:32;;;;;;;4.73;2.40;;;19.90;85.10;;;;;;5117856;28;20477;-45
2021/08/04 07:48:58;;;;;;;3.20;2.40;;;20.00;84.00;;;;;;5116889;28;20550;-45
2021/08/04 07:51:25;;;;;;;2.93;2.60;;;20.30;84.00;;;;;;5117158;28;20172;-45
2021/08/04 07:53:50;;;;;;;3.23;2.27;;;20.50;84.20;;;;;;5117402;28;20421;-45
2021/08/04 07:56:21;;;;;;;2.50;2.20;;;21.10;84.50;;;;;;5117615;28;20441;-45
2021/08/04 07:58:47;;;;;;;2.90;2.60;;;21.70;83.70;;;;;;5117760;28;20196;-45
2021/08/04 08:01:13;;;;;;;2.80;2.53;;;22.40;84.00;;;;;;5117347;28;20437;-45
2021/08/04 08:03:38;;;;;;;3.17;2.60;;;22.70;77.90;;;;;;5116377;28;20421;-45
2021/08/04 08:06:04;;;;;;;3.03;2.40;;;23.00;78.60;;;;;;5116551;28;20184;-45
2021/08/04 08:08:30;;;;;;;2.97;2.67;;;23.30;77.20;;;;;;5116599;28;20180;-45
2021/08/04 08:10:58;;;;;;;2.60;2.40;;;23.50;75.00;;;;;;5118914;28;20213;-46
2021/08/04 08:13:23;;;;;;;3.07;2.77;;;23.40;74.40;;;;;;5118190;28;20417;-45
2021/08/04 08:15:50;;;;;;;2.63;2.07;;;23.30;74.90;;;;;;5117513;28;20429;-45
2021/08/04 08:18:16;;;;;;;2.63;2.23;;;22.80;75.40;;;;;;5116945;28;20315;-45
2021/08/04 08:20:42;;;;;;;2.60;2.40;;;22.40;77.30;;;;;;5117493;28;20429;-45
2021/08/04 08:23:09;;;;;;;3.33;2.57;;;21.90;77.60;;;;;;5116885;28;20232;-45
2021/08/04 08:25:35;;;;;;;3.60;2.70;;;21.60;79.20;;;;;;5117521;28;20494;-46
2021/08/04 08:28:04;;;;;;;3.97;2.50;;;21.40;80.40;;;;;;5117998;28;20417;-45
2021/08/04 08:30:29;;;;;;;2.27;2.07;;;20.90;80.50;;;;;;5099638;28;20532;-45
2021/08/04 08:32:57;;;;;;;2.47;2.27;;;20.60;81.70;;;;;;5118142;28;20460;-45
2021/08/04 08:35:23;;;;;;;2.97;2.33;;;20.60;83.30;;;;;;5116333;28;20186;-46
2021/08/04 08:37:49;;;;;;;2.97;2.57;;;20.60;82.80;;;;;;5116879;28;20743;-45
2021/08/04 08:40:17;;;;;;;3.00;2.70;;;20.60;82.80;;;;;;5117111;28;20179;-46
2021/08/04 08:42:44;;;;;;;3.07;2.50;;;20.50;83.70;;;;;;5117808;28;20803;-46
2021/08/04 08:45:10;;;;;;;3.40;2.60;;;20.40;84.00;;;;;;5115786;28;20427;-46
2021/08/04 08:47:41;;;;;;;2.70;2.40;;;20.30;84.50;;;;;;5116993;28;20845;-46
2021/08/04 08:50:08;;;;;;;3.23;2.93;;;20.40;84.70;;;;;;5117301;28;20433;-46
2021/08/04 08:52:34;;;;;;;2.70;2.40;;;20.50;85.00;;;;;;5097841;28;20719;-45
2021/08/04 08:55:01;;;;;;;2.93;2.57;;;19.80;86.10;;;;;;5114015;28;20524;-45
2021/08/04 08:57:27;;;;;;;3.47;2.60;;;20.60;84.90;;;;;;5114263;28;20860;-46
2021/08/04 08:59:57;;;;;;;3.23;2.10;;;21.40;82.50;;;;;;5096592;28;20847;-46
2021/08/04 09:02:23;;;;;;;2.63;2.27;;;22.20;81.20;;;;;;5115841;28;20467;-46
2021/08/04 09:05:05;;;;;;;2.80;2.20;;;22.90;79.50;;;;;;5114566;28;20850;-46
2021/08/04 09:07:39;;;;;;;13.27;5.67;;;24.10;81.50;;;;;;5115067;28;20415;-46
2021/08/04 09:10:25;;;;;;;3.57;2.50;;;25.60;77.50;;;;;;5096740;28;20432;-45
2021/08/04 09:12:56;;;;;;;2.90;2.60;;;26.90;73.20;;;;;;5116481;28;20424;-46
2021/08/04 09:15:36;;;;;;;2.60;2.10;;;27.90;69.30;;;;;;5116205;28;20417;-46
2021/08/04 09:18:08;;;;;;;2.40;2.20;;;28.20;63.90;;;;;;5098154;28;20824;-46
2021/08/04 09:20:54;;;;;;;2.70;2.20;;;27.90;59.40;;;;;;5115261;28;20474;-46
2021/08/04 09:23:27;;;;;;;2.77;2.47;;;27.40;62.40;;;;;;5115803;28;20453;-46
2021/08/04 09:26:13;;;;;;;2.50;2.20;;;26.70;60.20;;;;;;5115843;28;20707;-46
2021/08/04 09:28:57;;;;;;;2.37;2.17;;;26.30;62.00;;;;;;5115640;28;20673;-46
2021/08/04 09:31:54;;;;;;;2.93;2.07;;;25.80;63.20;;;;;;5102574;28;20425;-46
2021/08/04 09:34:34;;;;;;;2.63;2.43;;;25.20;64.30;;;;;;5096941;28;20512;-46
2021/08/04 09:37:07;;;;;;;3.20;2.90;;;24.80;66.00;;;;;;5100983;28;20412;-46
2021/08/04 09:39:34;;;;;;;2.70;2.50;;;24.40;68.10;;;;;;5083884;28;20488;-46
2021/08/04 09:42:01;;;;;;;3.40;2.93;;;24.20;68.60;;;;;;5101969;28;20437;-46
2021/08/04 09:44:26;;;;;;;3.60;2.67;;;24.00;71.10;;;;;;5116767;28;20725;-46
2021/08/04 09:47:05;;;;;;;43.30;14.70;;;24.00;72.40;;;;;;5120726;28;20418;-46
2021/08/04 09:49:31;;;;;;;9.87;4.83;;;24.00;73.20;;;;;;5113018;28;20188;-46
2021/08/04 09:52:11;;;;;;;4.10;2.80;;;24.00;73.30;;;;;;5099958;28;20433;-46
2021/08/04 09:54:41;;;;;;;5.30;2.33;;;24.00;72.70;;;;;;5113160;28;20183;-46
2021/08/04 09:57:10;;;;;;;3.60;2.17;;;24.10;71.40;;;;;;5121027;28;20533;-46
2021/08/04 09:59:36;;;;;;;2.67;2.47;;;24.00;70.70;;;;;;5121402;28;20526;-46
2021/08/04 10:02:03;;;;;;;4.33;2.83;;;24.00;70.70;;;;;;5117485;28;20411;-46
2021/08/04 10:04:31;;;;;;;2.43;2.23;;;23.80;68.60;;;;;;5101470;28;20961;-46
2021/08/04 10:07:08;;;;;;;3.37;2.00;;;23.70;69.20;;;;;;5102555;28;20442;-47
2021/08/04 10:09:35;;;;;;;5.40;2.50;;;23.50;68.50;;;;;;5102084;28;20512;-46
2021/08/04 10:12:03;;;;;;;2.70;2.40;;;23.30;69.60;;;;;;5072868;28;20433;-46
2021/08/04 10:14:29;;;;;;;3.37;2.77;;;23.20;71.80;;;;;;5080766;28;20410;-46
2021/08/04 10:16:59;;;;;;;2.67;2.33;;;23.60;73.90;;;;;;5099917;28;20441;-46
2021/08/04 10:19:30;;;;;;;2.60;2.40;;;24.30;72.80;;;;;;5118865;28;20901;-45
2021/08/04 10:21:56;;;;;;;2.97;2.60;;;25.90;71.60;;;;;;5101872;28;20520;-46
2021/08/04 10:24:22;;;;;;;2.87;2.40;;;27.60;66.40;;;;;;5117304;28;20983;-46
2021/08/04 10:26:49;;;;;;;2.97;2.40;;;29.00;59.70;;;;;;5103389;28;20209;-46
2021/08/04 10:29:16;;;;;;;1.97;1.77;;;29.40;57.40;;;;;;5113332;28;20437;-46
2021/08/04 10:31:42;;;;;;;3.03;2.47;;;29.50;57.00;;;;;;5089945;28;20414;-46
2021/08/04 10:34:08;;;;;;;2.23;2.03;;;29.30;57.70;;;;;;5082600;28;20893;-46
2021/08/04 10:36:36;;;;;;;2.53;2.30;;;29.30;56.90;;;;;;5099547;28;20483;-46
2021/08/04 10:39:09;;;;;;;3.63;2.53;;;28.60;57.30;;;;;;5098911;28;20457;-46
2021/08/04 10:41:35;;;;;;;2.73;2.50;;;27.70;58.30;;;;;;5106543;28;20746;-46
2021/08/04 10:44:04;;;;;;;3.00;2.40;;;27.10;59.50;;;;;;5081054;28;20520;-46
2021/08/04 10:46:29;;;;;;;2.40;2.10;;;26.40;60.40;;;;;;5097161;28;20635;-39
2021/08/04 10:49:05;;;;;;;4.30;3.00;;;25.90;62.80;;;;;;5107466;28;20460;-38
2021/08/04 10:51:43;;;;;;;2.57;2.37;;;25.50;64.20;;;;;;5117211;28;20270;-37
2021/08/04 10:54:14;;;;;;;3.07;2.77;;;25.20;65.00;;;;;;5100933;28;20422;-38
2021/08/04 10:56:43;;;;;;;2.47;2.23;;;25.10;64.60;;;;;;5079888;28;20871;-38
2021/08/04 10:59:09;;;;;;;3.50;2.43;;;24.90;62.20;;;;;;5096905;28;20465;-38
2021/08/04 11:01:39;;;;;;;3.10;2.33;;;24.60;62.90;;;;;;5097037;28;20426;-36
2021/08/04 11:04:06;;;;;;;3.00;2.57;;;24.40;64.20;;;;;;5097221;28;20203;-42
2021/08/04 11:06:33;;;;;;;2.17;1.90;;;24.40;65.80;;;;;;5079766;28;20856;-37
2021/08/04 11:09:17;;;;;;;2.57;2.37;;;24.70;67.90;;;;;;5099900;28;20426;-37
2021/08/04 11:12:02;;;;;;;2.70;2.50;;;25.10;67.80;;;;;;5119811;28;20524;-38
2021/08/04 11:14:55;;;;;;;2.90;2.20;;;25.60;67.30;;;;;;5102596;28;20693;-39
2021/08/04 11:17:22;;;;;;;2.20;1.83;;;25.90;66.50;;;;;;5119524;28;20456;-38
2021/08/04 11:19:57;;;;;;;2.47;2.00;;;25.90;60.90;;;;;;5118278;28;20536;-38
2021/08/04 11:22:31;;;;;;;2.57;2.27;;;25.90;62.90;;;;;;5117429;28;20421;-38
2021/08/04 11:25:02;;;;;;;2.50;2.30;;;25.90;64.00;;;;;;5116803;28;20941;-37
2021/08/04 11:27:30;;;;;;;2.70;2.00;;;25.80;63.40;;;;;;5116714;28;20437;-37
2021/08/04 11:29:57;;;;;;;2.90;2.40;;;25.60;64.00;;;;;;5117700;28;20807;-40
2021/08/04 11:32:35;;;;;;;2.80;2.23;;;25.40;64.50;;;;;;5117338;28;20468;-39
2021/08/04 11:35:15;;;;;;;2.33;1.90;;;25.20;65.30;;;;;;5119066;28;20389;-37
2021/08/04 11:37:43;;;;;;;2.43;2.07;;;25.10;65.30;;;;;;5118427;28;20416;-38
2021/08/04 11:40:09;;;;;;;4.53;2.60;;;25.10;64.10;;;;;;5119100;28;20405;-38
2021/08/04 11:42:35;;;;;;;2.67;2.47;;;24.90;64.30;;;;;;5118896;28;20448;-37
2021/08/04 11:45:09;;;;;;;2.30;2.10;;;24.50;65.90;;;;;;5099137;28;20818;-37
2021/08/04 11:47:35;;;;;;;2.10;1.90;;;24.30;65.90;;;;;;5118345;28;20171;-42
2021/08/04 11:50:12;;;;;;;3.00;2.70;;;24.50;68.20;;;;;;5118322;28;20406;-37
2021/08/04 11:52:38;;;;;;;2.67;2.37;;;24.70;67.30;;;;;;5118301;28;20833;-39
2021/08/04 11:55:10;;;;;;;2.67;2.17;;;24.80;64.60;;;;;;5117688;28;20414;-36
2021/08/04 11:57:42;;;;;;;2.90;2.30;;;24.70;64.10;;;;;;5116333;28;20568;-36
2021/08/04 12:00:28;;;;;;;2.40;1.90;;;24.70;65.10;;;;;;5114441;28;20417;-39
2021/08/04 12:02:54;;;;;;;2.67;2.03;;;24.80;64.50;;;;;;5115072;28;20420;-38
2021/08/04 12:05:20;;;;;;;2.30;2.10;;;24.80;66.10;;;;;;5114389;28;20835;-37
2021/08/04 12:07:46;;;;;;;2.50;2.30;;;24.90;64.80;;;;;;5116426;28;20410;-37
2021/08/04 12:10:17;;;;;;;3.30;2.47;;;24.90;64.40;;;;;;5116340;28;20179;-36
2021/08/04 12:12:50;;;;;;;2.67;2.43;;;24.80;66.40;;;;;;5118027;28;20703;-37
2021/08/04 12:15:19;;;;;;;2.20;2.00;;;25.00;66.60;;;;;;5118423;28;20502;-37
2021/08/04 12:17:45;;;;;;;2.07;1.83;;;25.10;66.40;;;;;;5117933;28;20803;-38
2021/08/04 12:20:15;;;;;;;3.23;2.10;;;25.20;65.30;;;;;;5118617;28;20406;-37
2021/08/04 12:22:42;;;;;;;2.80;2.23;;;25.40;65.70;;;;;;5116941;28;20684;-38
2021/08/04 12:25:09;;;;;;;2.87;2.10;;;25.30;63.80;;;;;;5116094;28;20466;-38
2021/08/04 12:27:44;;;;;;;2.80;2.23;;;24.90;63.70;;;;;;5099218;28;20444;-36
2021/08/04 12:30:27;;;;;;;4.63;2.50;;;24.50;64.50;;;;;;5117296;28;20816;-38
2021/08/04 12:33:05;;;;;;;3.27;2.50;;;24.20;67.70;;;;;;5100349;28;20410;-38
2021/08/04 12:36:10;;;;;;;2.67;2.30;;;24.20;65.70;;;;;;5118030;28;20864;-37
2021/08/04 12:38:41;;;;;;;3.47;2.17;;;24.00;66.50;;;;;;5116327;28;20793;-38
2021/08/04 12:41:15;;;;;;;3.47;1.87;;;23.70;68.90;;;;;;5117217;28;20416;-37
2021/08/04 12:43:42;;;;;;;3.03;2.20;;;23.70;67.60;;;;;;5097951;28;20538;-38
2021/08/04 12:46:09;;;;;;;3.60;1.90;;;23.50;67.80;;;;;;5115996;28;20418;-38
2021/08/04 12:48:43;;;;;;;2.37;2.07;;;23.30;68.40;;;;;;5116253;28;20426;-37
2021/08/04 12:51:16;;;;;;;3.30;2.60;;;23.20;69.00;;;;;;5116892;28;20456;-36